Andrews Air Force Base, Maryland
Current Conditions -  °F | °C
As of 1:58 AM on Thursday 23 Oct 2014 (Local Time) from KADW Reporting Station
Overcast Overcast  
Wind Chill: 52°   Ceiling: 3200
Heat Index: 52°   Visibility: 10mi
Dew Point: 43°   Wind: 17mph
Humidity: 71%   Direction: 300°WNW
Pressure: 29.88"   Gusts: 22mph
Location:  38.8062°N, 76.8756°W
Report Text: KADW 230558Z AUTO 30015G19KT 10SM OVC032 11/06 A2988 RMK AO2 SLP125 60001 T01110060 10124 20110 57012 $
Loading
Personal Weather Stations






























Interactive Weather Map
Tropical Storm Tracking
New forecast layout! Learn more

10-Day Weather Forecast

Advertisements
Track Severe Weather on mobile